createdAt,value
2023-03-06T00:01:57.004Z,25.87
2023-03-06T00:04:19.180Z,24.03
2023-03-06T00:06:40.591Z,26.07
2023-03-06T00:09:02.025Z,25.67
2023-03-06T00:11:23.640Z,28.87
2023-03-06T00:13:46.632Z,27.63
2023-03-06T00:16:08.012Z,28.43
2023-03-06T00:18:29.062Z,22.27
2023-03-06T00:20:50.199Z,25.57
2023-03-06T00:23:12.009Z,27.73
2023-03-06T00:25:36.725Z,25.17
2023-03-06T00:27:58.149Z,25.47
2023-03-06T00:30:22.419Z,24.83
2023-03-06T00:32:44.312Z,25.37
2023-03-06T00:35:05.813Z,26.67
2023-03-06T00:37:26.936Z,24.80
2023-03-06T00:39:49.452Z,25.93
2023-03-06T00:42:10.255Z,24.40
2023-03-06T00:44:31.570Z,23.70
2023-03-06T00:46:54.132Z,23.83
2023-03-06T00:49:15.472Z,22.43
2023-03-06T00:51:36.637Z,24.80
2023-03-06T00:53:57.962Z,26.60
2023-03-06T00:56:20.037Z,24.17
2023-03-06T00:58:41.277Z,25.10
2023-03-06T01:01:02.865Z,27.10
2023-03-06T01:03:25.523Z,26.30
2023-03-06T01:05:46.951Z,24.90
2023-03-06T01:08:08.809Z,25.23
2023-03-06T01:10:30.274Z,27.73
2023-03-06T01:12:51.628Z,24.93
2023-03-06T01:15:13.852Z,24.10
2023-03-06T01:17:35.154Z,25.10
2023-03-06T01:19:58.070Z,26.53
2023-03-06T01:22:19.240Z,27.07
2023-03-06T01:24:40.591Z,23.83
2023-03-06T01:27:01.721Z,22.57
2023-03-06T01:29:23.067Z,25.83
2023-03-06T01:31:44.435Z,24.70
2023-03-06T01:34:05.753Z,23.57
2023-03-06T01:36:28.662Z,25.57
2023-03-06T01:38:49.995Z,27.23
2023-03-06T01:41:15.569Z,24.73
2023-03-06T01:43:37.808Z,21.60
2023-03-06T01:46:22.868Z,23.90
2023-03-06T01:48:44.725Z,26.87
2023-03-06T01:51:06.382Z,25.83
2023-03-06T01:53:29.363Z,26.63
2023-03-06T01:55:50.523Z,32.60
2023-03-06T01:58:13.187Z,28.80
2023-03-06T02:00:34.559Z,29.87
2023-03-06T02:02:56.576Z,27.97
2023-03-06T02:05:17.522Z,27.47
2023-03-06T02:07:39.202Z,23.10
2023-03-06T02:10:01.822Z,22.67
2023-03-06T02:12:23.289Z,26.03
2023-03-06T02:14:44.668Z,27.57
2023-03-06T02:17:05.798Z,25.77
2023-03-06T02:19:33.475Z,24.93
2023-03-06T02:21:54.557Z,26.30
2023-03-06T02:24:27.783Z,29.30
2023-03-06T02:26:50.940Z,29.40
2023-03-06T02:29:12.472Z,30.37
2023-03-06T02:31:35.544Z,27.57
2023-03-06T02:34:04.359Z,27.40
2023-03-06T02:36:25.834Z,27.00
2023-03-06T02:38:48.550Z,29.67
2023-03-06T02:41:10.294Z,30.37
2023-03-06T02:43:34.590Z,30.27
2023-03-06T02:45:55.917Z,28.53
2023-03-06T02:48:17.929Z,27.70
2023-03-06T02:50:39.163Z,31.60
2023-03-06T02:53:00.726Z,25.97
2023-03-06T02:55:22.058Z,27.33
2023-03-06T02:57:43.543Z,26.27
2023-03-06T03:00:07.156Z,28.77
2023-03-06T03:02:28.521Z,31.07
2023-03-06T03:04:49.915Z,26.93
2023-03-06T03:07:11.087Z,26.43
2023-03-06T03:09:36.747Z,26.73
2023-03-06T03:11:57.717Z,27.03
2023-03-06T03:14:18.915Z,30.20
2023-03-06T03:16:41.550Z,27.33
2023-03-06T03:19:02.758Z,26.33
2023-03-06T03:21:24.004Z,27.30
2023-03-06T03:23:45.620Z,30.73
2023-03-06T03:26:07.482Z,29.90
2023-03-06T03:28:28.716Z,27.23
2023-03-06T03:30:50.151Z,30.57
2023-03-06T03:33:13.161Z,27.90
2023-03-06T03:35:34.691Z,27.77
2023-03-06T03:37:55.757Z,29.53
2023-03-06T03:40:16.983Z,27.03
2023-03-06T03:42:38.338Z,28.43
2023-03-06T03:44:59.342Z,25.90
2023-03-06T03:47:20.441Z,29.93
2023-03-06T03:49:42.992Z,28.27
2023-03-06T03:52:04.096Z,28.83
2023-03-06T03:54:25.430Z,32.23
2023-03-06T03:56:46.402Z,29.10
2023-03-06T03:59:07.955Z,27.53
2023-03-06T04:01:29.363Z,30.23
2023-03-06T04:03:50.327Z,28.53
2023-03-06T04:06:13.059Z,28.10
2023-03-06T04:08:34.528Z,26.50
2023-03-06T04:10:56.058Z,29.03
2023-03-06T04:13:17.979Z,28.50
2023-03-06T04:15:39.440Z,27.97
2023-03-06T04:18:00.686Z,25.83
2023-03-06T04:20:21.982Z,27.93
2023-03-06T04:22:44.670Z,27.47
2023-03-06T04:25:06.026Z,31.20
2023-03-06T04:27:27.620Z,29.33
2023-03-06T04:29:48.816Z,28.33
2023-03-06T04:32:10.320Z,24.80
2023-03-06T04:34:31.643Z,27.23
2023-03-06T04:36:53.009Z,28.20
2023-03-06T04:39:15.978Z,27.40
2023-03-06T04:41:36.935Z,31.37
2023-03-06T04:43:58.534Z,28.80
2023-03-06T04:46:19.848Z,31.43
2023-03-06T04:48:41.103Z,28.93
2023-03-06T04:51:02.493Z,33.10
2023-03-06T04:53:23.757Z,30.03
2023-03-06T04:55:46.464Z,28.23
2023-03-06T04:58:07.393Z,30.73
2023-03-06T05:00:31.429Z,28.63
2023-03-06T05:02:52.859Z,28.73
2023-03-06T05:05:14.411Z,28.37
2023-03-06T05:07:35.831Z,26.10
2023-03-06T05:09:57.273Z,35.37
2023-03-06T05:12:19.602Z,29.33
2023-03-06T05:14:40.708Z,31.30
2023-03-06T05:17:02.096Z,30.03
2023-03-06T05:19:23.298Z,31.03
2023-03-06T05:21:44.719Z,27.40
2023-03-06T05:24:06.257Z,27.97
2023-03-06T05:26:27.242Z,32.37
2023-03-06T05:28:49.966Z,39.43
2023-03-06T05:31:11.233Z,34.20
2023-03-06T05:33:32.766Z,29.63
2023-03-06T05:35:54.185Z,30.07
2023-03-06T05:38:15.417Z,27.33
2023-03-06T05:40:36.621Z,29.47
2023-03-06T05:42:57.849Z,29.97
2023-03-06T05:45:20.769Z,32.27
2023-03-06T05:47:41.966Z,31.30
2023-03-06T05:50:03.275Z,29.60
2023-03-06T05:52:24.730Z,28.70
2023-03-06T05:54:50.372Z,32.87
2023-03-06T05:57:11.998Z,31.73
2023-03-06T05:59:33.699Z,32.43
2023-03-06T06:01:56.655Z,29.00
2023-03-06T06:04:18.058Z,26.50
2023-03-06T06:06:39.386Z,29.07
2023-03-06T06:09:00.648Z,29.27
2023-03-06T06:11:21.847Z,27.27
2023-03-06T06:13:42.904Z,26.63
2023-03-06T06:16:07.514Z,28.27
2023-03-06T06:18:30.228Z,31.43
2023-03-06T06:20:51.488Z,26.67
2023-03-06T06:23:13.172Z,27.93
2023-03-06T06:25:34.690Z,28.27
2023-03-06T06:27:56.169Z,27.00
2023-03-06T06:30:17.930Z,26.23
2023-03-06T06:32:39.378Z,28.57
2023-03-06T06:35:02.100Z,31.73
2023-03-06T06:37:23.132Z,28.07
2023-03-06T06:39:44.821Z,27.53
2023-03-06T06:42:28.887Z,30.37
2023-03-06T06:44:47.671Z,28.70
2023-03-06T06:47:22.255Z,28.77
2023-03-06T06:49:45.076Z,28.30
2023-03-06T06:52:08.354Z,24.63
2023-03-06T06:54:29.907Z,26.33
2023-03-06T06:56:51.251Z,29.20
2023-03-06T06:59:17.218Z,27.40
2023-03-06T07:01:38.364Z,28.53
2023-03-06T07:03:59.777Z,27.50
2023-03-06T07:06:21.142Z,27.13
2023-03-06T07:08:43.922Z,28.13
2023-03-06T07:11:07.217Z,26.30
2023-03-06T07:13:28.253Z,25.47
2023-03-06T07:15:49.688Z,22.90
2023-03-06T07:18:11.094Z,24.43
2023-03-06T07:20:32.749Z,23.37
2023-03-06T07:22:53.877Z,25.63
2023-03-06T07:25:17.208Z,23.80
2023-03-06T07:27:38.201Z,25.50
2023-03-06T07:29:59.519Z,24.57
2023-03-06T07:32:20.961Z,24.27
2023-03-06T07:34:43.068Z,24.80
2023-03-06T07:37:04.654Z,26.87
2023-03-06T07:39:25.645Z,26.40
2023-03-06T07:41:48.264Z,27.13
2023-03-06T07:44:09.297Z,24.37
2023-03-06T07:46:30.616Z,23.17
2023-03-06T07:48:52.075Z,25.07
2023-03-06T07:51:14.732Z,26.47
2023-03-06T07:53:36.077Z,26.67
2023-03-06T07:55:57.189Z,28.40
2023-03-06T07:58:19.702Z,25.17
2023-03-06T08:00:40.967Z,30.20
2023-03-06T08:03:02.400Z,22.87
2023-03-06T08:05:23.740Z,26.30
2023-03-06T08:07:45.091Z,21.30
2023-03-06T08:10:06.535Z,21.67
2023-03-06T08:12:27.668Z,22.73
2023-03-06T08:14:50.245Z,22.00
2023-03-06T08:17:11.217Z,23.60
2023-03-06T08:19:33.013Z,23.70
2023-03-06T08:21:54.044Z,20.53
2023-03-06T08:24:16.734Z,23.87
2023-03-06T08:26:37.658Z,22.33
2023-03-06T08:28:59.867Z,23.80
2023-03-06T08:31:30.181Z,23.50
2023-03-06T08:33:51.665Z,20.13
2023-03-06T08:36:13.555Z,22.53
2023-03-06T08:38:34.922Z,21.10
2023-03-06T08:40:56.353Z,22.60
2023-03-06T08:43:17.629Z,23.60
2023-03-06T08:45:39.682Z,22.30
2023-03-06T08:48:02.039Z,22.40
2023-03-06T08:50:23.344Z,19.70
2023-03-06T08:52:44.558Z,21.10
2023-03-06T08:55:06.413Z,21.43
2023-03-06T08:57:27.483Z,19.30
2023-03-06T08:59:48.740Z,18.17
2023-03-06T09:02:12.996Z,19.10
2023-03-06T09:04:35.905Z,19.60
2023-03-06T09:06:57.222Z,21.57
2023-03-06T09:09:18.492Z,19.90
2023-03-06T09:11:39.670Z,15.83
2023-03-06T09:14:00.986Z,17.10
2023-03-06T09:16:22.336Z,15.03
2023-03-06T09:18:43.799Z,15.53
2023-03-06T09:21:06.889Z,17.87
2023-03-06T09:23:27.835Z,13.73
2023-03-06T09:25:52.558Z,15.97
2023-03-06T09:28:13.503Z,14.60
2023-03-06T09:30:34.703Z,14.50
2023-03-06T09:32:56.011Z,16.90
2023-03-06T09:35:18.730Z,14.13
2023-03-06T09:37:41.785Z,14.40
2023-03-06T09:40:04.788Z,15.80
2023-03-06T09:42:26.442Z,12.43
2023-03-06T09:44:51.350Z,13.47
2023-03-06T09:47:19.756Z,17.00
2023-03-06T09:49:45.850Z,16.27
2023-03-06T09:52:13.601Z,12.80
2023-03-06T09:54:42.031Z,13.33
2023-03-06T09:57:03.682Z,10.80
2023-03-06T09:59:26.137Z,11.87
2023-03-06T10:01:49.160Z,10.20
2023-03-06T10:04:12.631Z,12.20
2023-03-06T10:06:35.494Z,11.00
2023-03-06T10:08:58.799Z,18.67
2023-03-06T10:11:25.036Z,11.17
2023-03-06T10:13:46.857Z,10.60
2023-03-06T10:16:13.474Z,15.27
2023-03-06T10:18:38.408Z,8.03
2023-03-06T10:21:13.418Z,9.87
2023-03-06T10:23:44.303Z,8.30
2023-03-06T10:26:10.953Z,10.23
2023-03-06T10:28:36.808Z,10.60
2023-03-06T10:31:01.154Z,11.57
2023-03-06T10:33:23.560Z,9.30
2023-03-06T10:35:47.546Z,9.70
2023-03-06T10:38:14.168Z,10.47
2023-03-06T10:40:41.885Z,10.33
2023-03-06T10:43:11.356Z,10.10
2023-03-06T10:45:48.496Z,8.60
2023-03-06T10:48:12.139Z,8.47
2023-03-06T10:50:34.446Z,15.13
2023-03-06T10:53:00.230Z,14.93
2023-03-06T10:55:26.691Z,12.03
2023-03-06T10:57:47.901Z,8.63
2023-03-06T11:00:24.475Z,11.30
2023-03-06T11:02:47.006Z,8.70
2023-03-06T11:05:19.030Z,9.43
2023-03-06T11:07:54.319Z,9.77
2023-03-06T11:10:19.048Z,9.57
2023-03-06T11:12:41.148Z,10.70
2023-03-06T11:15:09.718Z,11.23
2023-03-06T11:17:32.107Z,14.37
2023-03-06T11:20:07.861Z,12.77
2023-03-06T11:22:29.036Z,11.27
2023-03-06T11:24:51.532Z,10.37
2023-03-06T11:27:22.127Z,11.33
2023-03-06T11:29:44.623Z,11.10
2023-03-06T11:32:09.822Z,10.43
2023-03-06T11:34:39.624Z,11.20
2023-03-06T11:37:07.392Z,12.40
2023-03-06T11:39:32.857Z,11.70
2023-03-06T11:42:00.453Z,11.43
2023-03-06T11:44:26.726Z,11.73
2023-03-06T11:46:49.594Z,13.83
2023-03-06T11:49:17.974Z,13.10
2023-03-06T11:51:41.238Z,13.17
2023-03-06T11:54:04.055Z,12.20
2023-03-06T11:56:31.811Z,11.90
2023-03-06T11:58:59.084Z,11.33
2023-03-06T12:01:24.335Z,13.00
2023-03-06T12:04:00.389Z,12.17
2023-03-06T12:06:27.597Z,12.63
2023-03-06T12:08:53.211Z,14.13
2023-03-06T12:11:20.330Z,12.37
2023-03-06T12:14:01.009Z,12.13
2023-03-06T12:16:39.951Z,11.23
2023-03-06T12:19:08.079Z,11.83
2023-03-06T12:21:34.811Z,12.97
2023-03-06T12:24:00.115Z,10.00
2023-03-06T12:26:31.697Z,8.60
2023-03-06T12:29:01.871Z,7.83
2023-03-06T12:31:41.230Z,9.00
2023-03-06T12:34:06.520Z,9.47
2023-03-06T12:36:34.279Z,8.13
2023-03-06T12:39:01.190Z,8.17
2023-03-06T12:41:25.407Z,7.63
2023-03-06T12:44:03.016Z,8.87
2023-03-06T12:46:25.222Z,7.97
2023-03-06T12:48:48.401Z,9.37
2023-03-06T12:51:12.090Z,8.53
2023-03-06T12:53:35.150Z,9.23
2023-03-06T12:55:56.891Z,8.33
2023-03-06T12:58:45.775Z,8.70
2023-03-06T13:01:11.072Z,8.07
2023-03-06T13:03:36.688Z,9.20
2023-03-06T13:06:05.346Z,7.87
2023-03-06T13:08:45.870Z,9.27
2023-03-06T13:11:17.511Z,8.33
2023-03-06T13:13:44.015Z,7.93
2023-03-06T13:16:10.829Z,8.80
2023-03-06T13:18:56.160Z,9.03
2023-03-06T13:21:38.027Z,7.47
2023-03-06T13:24:04.921Z,7.60
2023-03-06T13:26:44.951Z,8.23
2023-03-06T13:29:25.890Z,8.33
2023-03-06T13:32:07.780Z,8.27
2023-03-06T13:34:34.898Z,8.50
2023-03-06T13:37:16.661Z,7.77
2023-03-06T13:39:52.690Z,13.83
2023-03-06T13:42:26.754Z,9.73
2023-03-06T13:44:49.651Z,9.63
2023-03-06T13:47:22.420Z,7.87
2023-03-06T13:49:45.611Z,8.07
2023-03-06T13:52:08.016Z,9.50
2023-03-06T13:54:36.614Z,9.63
2023-03-06T13:57:22.228Z,9.57
2023-03-06T14:00:09.231Z,9.00
2023-03-06T14:02:40.394Z,8.10
2023-03-06T14:05:02.167Z,10.53
2023-03-06T14:07:25.213Z,9.33
2023-03-06T14:09:47.964Z,8.73
2023-03-06T14:12:16.853Z,7.87
2023-03-06T14:14:41.136Z,11.07
2023-03-06T14:17:05.144Z,9.37
2023-03-06T14:19:28.757Z,9.33
2023-03-06T14:21:52.059Z,10.27
2023-03-06T14:24:15.931Z,10.60
2023-03-06T14:26:41.525Z,11.30
2023-03-06T14:29:03.732Z,8.80
2023-03-06T14:31:26.291Z,8.50
2023-03-06T14:33:51.208Z,11.63
2023-03-06T14:36:16.171Z,9.53
2023-03-06T14:38:38.891Z,8.27
2023-03-06T14:41:00.407Z,8.77
2023-03-06T14:43:23.176Z,9.63
2023-03-06T14:45:51.395Z,10.10
2023-03-06T14:48:15.596Z,8.93
2023-03-06T14:50:37.146Z,8.93
2023-03-06T14:53:00.430Z,13.37
2023-03-06T14:55:23.628Z,11.13
2023-03-06T14:57:44.726Z,10.70
2023-03-06T15:00:06.994Z,9.17
2023-03-06T15:02:29.132Z,6.73
2023-03-06T15:04:52.210Z,7.33
2023-03-06T15:07:15.544Z,7.53
2023-03-06T15:09:38.658Z,7.20
2023-03-06T15:12:00.936Z,9.60
2023-03-06T15:14:23.349Z,6.97
2023-03-06T15:16:44.716Z,14.80
2023-03-06T15:19:05.833Z,9.23
2023-03-06T15:21:28.635Z,12.07
2023-03-06T15:23:50.325Z,8.17
2023-03-06T15:26:23.676Z,9.30
2023-03-06T15:28:44.858Z,10.17
2023-03-06T15:31:21.216Z,8.20
2023-03-06T15:33:42.665Z,45.30
2023-03-06T15:36:04.911Z,8.23
2023-03-06T15:38:30.913Z,7.90
2023-03-06T15:40:55.230Z,8.03
2023-03-06T15:43:17.969Z,11.00
2023-03-06T15:45:39.528Z,9.93
2023-03-06T15:48:02.766Z,8.80
2023-03-06T15:50:25.170Z,10.40
2023-03-06T15:52:46.945Z,8.13
2023-03-06T15:55:08.358Z,9.00
2023-03-06T15:57:30.207Z,8.73
2023-03-06T15:59:52.831Z,8.47
2023-03-06T16:02:17.785Z,9.30
2023-03-06T16:04:38.846Z,14.50
2023-03-06T16:07:00.125Z,7.97
2023-03-06T16:09:22.667Z,8.00
2023-03-06T16:11:45.023Z,10.83
2023-03-06T16:14:06.263Z,9.20
2023-03-06T16:16:31.238Z,10.17
2023-03-06T16:18:52.146Z,8.87
2023-03-06T16:21:13.430Z,9.63
2023-03-06T16:23:38.690Z,8.53
2023-03-06T16:26:00.045Z,8.73
2023-03-06T16:28:21.286Z,9.93
2023-03-06T16:30:43.282Z,10.57
2023-03-06T16:33:05.941Z,10.83
2023-03-06T16:35:27.577Z,10.10
2023-03-06T16:37:48.844Z,10.90
2023-03-06T16:40:16.170Z,9.30
2023-03-06T16:42:37.537Z,11.50
2023-03-06T16:44:58.850Z,10.13
2023-03-06T16:47:20.331Z,10.27
2023-03-06T16:49:43.216Z,11.00
2023-03-06T16:52:05.050Z,14.13
2023-03-06T16:54:26.216Z,11.73
2023-03-06T16:56:47.838Z,11.67
2023-03-06T16:59:09.093Z,11.60
2023-03-06T17:01:30.151Z,12.57
2023-03-06T17:03:51.349Z,12.23
2023-03-06T17:06:18.136Z,12.03
2023-03-06T17:08:39.488Z,11.60
2023-03-06T17:11:00.835Z,12.17
2023-03-06T17:13:22.311Z,11.03
2023-03-06T17:15:56.568Z,12.43
2023-03-06T17:18:17.900Z,12.17
2023-03-06T17:20:39.191Z,12.03
2023-03-06T17:23:01.956Z,12.77
2023-03-06T17:25:23.288Z,17.93
2023-03-06T17:27:44.804Z,12.53
2023-03-06T17:30:06.771Z,17.30
2023-03-06T17:32:28.136Z,12.87
2023-03-06T17:34:49.154Z,18.53
2023-03-06T17:37:10.624Z,20.67
2023-03-06T17:39:33.982Z,15.17
2023-03-06T17:41:54.976Z,13.20
2023-03-06T17:44:16.502Z,13.43
2023-03-06T17:46:37.734Z,15.93
2023-03-06T17:48:58.985Z,12.57
2023-03-06T17:51:20.314Z,13.60
2023-03-06T17:53:41.467Z,14.27
2023-03-06T17:56:05.710Z,14.43
2023-03-06T17:58:27.098Z,15.53
2023-03-06T18:00:48.341Z,16.27
2023-03-06T18:03:10.116Z,15.97
2023-03-06T18:05:31.482Z,19.57
2023-03-06T18:07:52.806Z,17.40
2023-03-06T18:10:14.123Z,18.23
2023-03-06T18:12:36.920Z,20.17
2023-03-06T18:14:57.844Z,18.90
2023-03-06T18:17:19.001Z,18.83
2023-03-06T18:19:41.413Z,16.27
2023-03-06T18:22:02.701Z,24.70
2023-03-06T18:24:24.213Z,32.63
2023-03-06T18:26:45.811Z,18.57
2023-03-06T18:29:08.181Z,19.17
2023-03-06T18:31:33.775Z,17.17
2023-03-06T18:33:56.039Z,16.97
2023-03-06T18:36:17.400Z,18.57
2023-03-06T18:38:40.051Z,16.30
2023-03-06T18:41:01.139Z,18.23
2023-03-06T18:43:22.313Z,16.07
2023-03-06T18:45:53.783Z,14.70
2023-03-06T18:48:15.505Z,15.37
2023-03-06T18:50:36.639Z,15.13
2023-03-06T18:52:57.919Z,16.03
2023-03-06T18:55:19.090Z,13.83
2023-03-06T18:57:40.884Z,15.67
2023-03-06T19:00:01.896Z,15.30
2023-03-06T19:02:24.310Z,15.47
2023-03-06T19:04:45.582Z,17.60
2023-03-06T19:07:07.205Z,16.43
2023-03-06T19:09:28.477Z,15.40
2023-03-06T19:11:49.829Z,17.83
2023-03-06T19:14:11.222Z,20.97
2023-03-06T19:16:32.644Z,16.67
2023-03-06T19:18:56.143Z,16.80
2023-03-06T19:21:18.780Z,21.33
2023-03-06T19:23:40.046Z,19.20
2023-03-06T19:26:01.603Z,14.47
2023-03-06T19:28:22.745Z,19.03
2023-03-06T19:30:44.423Z,15.80
2023-03-06T19:33:05.710Z,16.63
2023-03-06T19:35:28.548Z,15.97
2023-03-06T19:37:49.782Z,16.10
2023-03-06T19:40:11.757Z,15.80
2023-03-06T19:42:32.678Z,16.43
2023-03-06T19:44:53.988Z,18.10
2023-03-06T19:47:15.519Z,16.20
2023-03-06T19:49:38.095Z,19.23
2023-03-06T19:52:00.844Z,16.17
2023-03-06T19:54:24.678Z,15.17
2023-03-06T19:56:46.045Z,14.93
2023-03-06T19:59:07.138Z,17.57
2023-03-06T20:01:29.141Z,14.77
2023-03-06T20:03:51.106Z,17.93
2023-03-06T20:06:13.632Z,16.43
2023-03-06T20:08:36.276Z,16.10
2023-03-06T20:10:57.599Z,15.47
2023-03-06T20:13:18.884Z,16.73
2023-03-06T20:15:40.249Z,17.93
2023-03-06T20:18:01.428Z,16.53
2023-03-06T20:20:22.837Z,15.03
2023-03-06T20:22:44.265Z,17.37
2023-03-06T20:25:07.299Z,15.37
2023-03-06T20:27:28.602Z,18.23
2023-03-06T20:29:49.927Z,14.67
2023-03-06T20:32:11.387Z,17.90
2023-03-06T20:34:32.407Z,17.87
2023-03-06T20:36:53.646Z,16.80
2023-03-06T20:39:16.192Z,16.83
2023-03-06T20:41:38.776Z,16.97
2023-03-06T20:44:00.207Z,15.30
2023-03-06T20:46:22.390Z,17.00
2023-03-06T20:48:44.211Z,16.50
2023-03-06T20:51:06.535Z,15.87
2023-03-06T20:53:27.836Z,17.13
2023-03-06T20:55:50.167Z,15.23
2023-03-06T20:58:12.872Z,18.80
2023-03-06T21:00:34.329Z,15.20
2023-03-06T21:02:55.579Z,15.53
2023-03-06T21:05:16.738Z,17.97
2023-03-06T21:07:37.883Z,14.03
2023-03-06T21:09:59.078Z,18.20
2023-03-06T21:12:20.345Z,18.33
2023-03-06T21:14:43.057Z,16.57
2023-03-06T21:17:04.707Z,16.70
2023-03-06T21:19:25.867Z,15.83
2023-03-06T21:21:47.224Z,16.80
2023-03-06T21:24:09.050Z,15.40
2023-03-06T21:26:33.603Z,16.03
2023-03-06T21:28:54.729Z,18.33
2023-03-06T21:31:18.592Z,15.80
2023-03-06T21:33:40.336Z,19.40
2023-03-06T21:36:01.716Z,16.30
2023-03-06T21:38:23.218Z,16.63
2023-03-06T21:40:45.409Z,17.27
2023-03-06T21:43:06.831Z,17.10
2023-03-06T21:45:30.567Z,18.93
2023-03-06T21:47:53.533Z,17.00
2023-03-06T21:50:15.446Z,20.13
2023-03-06T21:52:36.650Z,16.53
2023-03-06T21:54:57.737Z,26.97
2023-03-06T21:57:18.880Z,21.73
2023-03-06T21:59:40.417Z,20.43
2023-03-06T22:02:01.745Z,33.57
2023-03-06T22:04:24.176Z,22.07
2023-03-06T22:06:45.566Z,18.27
2023-03-06T22:09:06.694Z,17.40
2023-03-06T22:11:30.546Z,21.57
2023-03-06T22:13:53.242Z,19.03
2023-03-06T22:16:14.781Z,18.67
2023-03-06T22:18:36.604Z,19.13
2023-03-06T22:20:59.472Z,20.73
2023-03-06T22:23:20.532Z,17.93
2023-03-06T22:25:41.874Z,18.20
2023-03-06T22:28:02.953Z,15.90
2023-03-06T22:30:24.331Z,17.87
2023-03-06T22:32:45.791Z,17.73
2023-03-06T22:35:07.666Z,18.37
2023-03-06T22:37:30.352Z,16.80
2023-03-06T22:39:51.292Z,16.93
2023-03-06T22:42:12.501Z,16.43
2023-03-06T22:44:33.841Z,16.00
2023-03-06T22:46:55.289Z,15.50
2023-03-06T22:49:16.867Z,15.67
2023-03-06T22:51:38.488Z,18.20
2023-03-06T22:54:00.922Z,18.53
2023-03-06T22:56:22.742Z,17.47
2023-03-06T22:58:44.882Z,16.53
2023-03-06T23:01:07.273Z,17.87
2023-03-06T23:03:28.424Z,16.03
2023-03-06T23:05:49.595Z,17.80
2023-03-06T23:08:11.004Z,18.17
2023-03-06T23:10:37.441Z,15.93
2023-03-06T23:12:58.371Z,15.27
2023-03-06T23:15:19.737Z,16.53
2023-03-06T23:17:41.187Z,15.37
2023-03-06T23:20:06.063Z,15.07
2023-03-06T23:22:27.037Z,15.33
2023-03-06T23:24:48.233Z,14.07
2023-03-06T23:27:10.750Z,15.07
2023-03-06T23:29:32.157Z,15.47
2023-03-06T23:31:53.176Z,13.40
2023-03-06T23:34:14.332Z,16.10
2023-03-06T23:36:36.369Z,15.23
2023-03-06T23:38:58.152Z,16.07
2023-03-06T23:41:20.412Z,15.40
2023-03-06T23:43:43.031Z,14.53
2023-03-06T23:46:04.987Z,15.83
2023-03-06T23:48:26.711Z,15.17
2023-03-06T23:50:48.040Z,14.50
2023-03-06T23:53:09.150Z,16.47
2023-03-06T23:55:30.498Z,15.37
2023-03-06T23:57:51.932Z,16.90
